sensor_id;sensor_type;location;lat;lon;timestamp;temperature;humidity
65034;DHT22;51601;51.356;12.458;2022-08-21T00:01:50;19.40;94.10
65034;DHT22;51601;51.356;12.458;2022-08-21T00:06:06;19.40;94.00
65034;DHT22;51601;51.356;12.458;2022-08-21T00:10:25;19.30;94.00
65034;DHT22;51601;51.356;12.458;2022-08-21T00:14:40;19.30;94.00
65034;DHT22;51601;51.356;12.458;2022-08-21T00:18:54;19.40;94.00
65034;DHT22;51601;51.356;12.458;2022-08-21T00:23:09;19.30;94.00
65034;DHT22;51601;51.356;12.458;2022-08-21T00:27:23;19.30;94.00
65034;DHT22;51601;51.356;12.458;2022-08-21T00:31:37;19.20;94.10
65034;DHT22;51601;51.356;12.458;2022-08-21T00:35:51;19.20;94.20
65034;DHT22;51601;51.356;12.458;2022-08-21T00:40:08;19.20;94.30
65034;DHT22;51601;51.356;12.458;2022-08-21T00:44:23;19.20;94.40
65034;DHT22;51601;51.356;12.458;2022-08-21T00:48:37;19.20;94.40
65034;DHT22;51601;51.356;12.458;2022-08-21T00:52:51;19.20;94.30
65034;DHT22;51601;51.356;12.458;2022-08-21T00:57:12;19.20;94.30
65034;DHT22;51601;51.356;12.458;2022-08-21T01:01:28;19.20;94.30
65034;DHT22;51601;51.356;12.458;2022-08-21T01:05:43;19.10;94.20
65034;DHT22;51601;51.356;12.458;2022-08-21T01:09:58;19.10;94.30
65034;DHT22;51601;51.356;12.458;2022-08-21T01:14:15;19.20;94.50
65034;DHT22;51601;51.356;12.458;2022-08-21T01:18:30;19.20;94.40
65034;DHT22;51601;51.356;12.458;2022-08-21T01:22:46;19.20;94.40
65034;DHT22;51601;51.356;12.458;2022-08-21T01:27:00;19.20;94.30
65034;DHT22;51601;51.356;12.458;2022-08-21T01:31:15;19.20;94.30
65034;DHT22;51601;51.356;12.458;2022-08-21T01:35:38;19.30;94.20
65034;DHT22;51601;51.356;12.458;2022-08-21T01:39:53;19.30;94.20
65034;DHT22;51601;51.356;12.458;2022-08-21T01:44:07;19.30;94.10
65034;DHT22;51601;51.356;12.458;2022-08-21T01:48:22;19.30;94.10
65034;DHT22;51601;51.356;12.458;2022-08-21T01:52:36;19.30;94.00
65034;DHT22;51601;51.356;12.458;2022-08-21T01:56:53;19.20;93.90
65034;DHT22;51601;51.356;12.458;2022-08-21T02:01:08;19.20;93.90
65034;DHT22;51601;51.356;12.458;2022-08-21T02:05:22;19.10;93.90
65034;DHT22;51601;51.356;12.458;2022-08-21T02:09:36;19.10;94.00
65034;DHT22;51601;51.356;12.458;2022-08-21T02:13:53;19.10;94.00
65034;DHT22;51601;51.356;12.458;2022-08-21T02:18:06;19.10;94.00
65034;DHT22;51601;51.356;12.458;2022-08-21T02:22:20;19.00;93.90
65034;DHT22;51601;51.356;12.458;2022-08-21T02:26:34;19.00;93.80
65034;DHT22;51601;51.356;12.458;2022-08-21T02:30:50;18.90;93.80
65034;DHT22;51601;51.356;12.458;2022-08-21T02:35:05;18.90;94.00
65034;DHT22;51601;51.356;12.458;2022-08-21T02:39:19;18.90;94.00
65034;DHT22;51601;51.356;12.458;2022-08-21T02:43:39;18.90;94.00
65034;DHT22;51601;51.356;12.458;2022-08-21T02:47:55;18.80;94.00
65034;DHT22;51601;51.356;12.458;2022-08-21T02:52:11;18.80;94.10
65034;DHT22;51601;51.356;12.458;2022-08-21T02:56:25;18.90;94.00
65034;DHT22;51601;51.356;12.458;2022-08-21T03:00:43;18.80;93.80
65034;DHT22;51601;51.356;12.458;2022-08-21T03:04:58;18.80;93.70
65034;DHT22;51601;51.356;12.458;2022-08-21T03:09:12;18.70;93.60
65034;DHT22;51601;51.356;12.458;2022-08-21T03:13:26;18.70;93.60
65034;DHT22;51601;51.356;12.458;2022-08-21T03:17:40;18.60;93.60
65034;DHT22;51601;51.356;12.458;2022-08-21T03:21:56;18.60;93.60
65034;DHT22;51601;51.356;12.458;2022-08-21T03:26:10;18.60;93.60
65034;DHT22;51601;51.356;12.458;2022-08-21T03:30:25;18.60;93.60
65034;DHT22;51601;51.356;12.458;2022-08-21T03:34:40;18.50;93.50
65034;DHT22;51601;51.356;12.458;2022-08-21T03:38:56;18.50;93.50
65034;DHT22;51601;51.356;12.458;2022-08-21T03:43:10;18.50;93.80
65034;DHT22;51601;51.356;12.458;2022-08-21T03:47:24;18.40;93.50
65034;DHT22;51601;51.356;12.458;2022-08-21T03:51:37;18.40;93.50
65034;DHT22;51601;51.356;12.458;2022-08-21T03:55:53;18.40;93.60
65034;DHT22;51601;51.356;12.458;2022-08-21T04:00:09;18.30;93.70
65034;DHT22;51601;51.356;12.458;2022-08-21T04:04:25;18.40;93.70
65034;DHT22;51601;51.356;12.458;2022-08-21T04:08:40;18.40;93.60
65034;DHT22;51601;51.356;12.458;2022-08-21T04:12:57;18.40;93.50
65034;DHT22;51601;51.356;12.458;2022-08-21T04:17:11;18.50;93.40
65034;DHT22;51601;51.356;12.458;2022-08-21T04:21:25;18.40;93.30
65034;DHT22;51601;51.356;12.458;2022-08-21T04:25:40;18.40;93.20
65034;DHT22;51601;51.356;12.458;2022-08-21T04:29:55;18.30;93.10
65034;DHT22;51601;51.356;12.458;2022-08-21T04:34:09;18.30;93.10
65034;DHT22;51601;51.356;12.458;2022-08-21T04:38:26;18.40;93.10
65034;DHT22;51601;51.356;12.458;2022-08-21T04:42:50;18.40;93.10
65034;DHT22;51601;51.356;12.458;2022-08-21T04:47:05;18.40;93.10
65034;DHT22;51601;51.356;12.458;2022-08-21T04:51:23;18.40;93.10
65034;DHT22;51601;51.356;12.458;2022-08-21T04:55:39;18.50;93.10
65034;DHT22;51601;51.356;12.458;2022-08-21T04:59:54;18.60;93.00
65034;DHT22;51601;51.356;12.458;2022-08-21T05:04:11;18.60;92.90
65034;DHT22;51601;51.356;12.458;2022-08-21T05:08:27;18.70;92.90
65034;DHT22;51601;51.356;12.458;2022-08-21T05:12:42;18.80;92.80
65034;DHT22;51601;51.356;12.458;2022-08-21T05:16:57;18.90;92.70
65034;DHT22;51601;51.356;12.458;2022-08-21T05:21:12;18.90;92.50
65034;DHT22;51601;51.356;12.458;2022-08-21T05:25:26;19.00;92.40
65034;DHT22;51601;51.356;12.458;2022-08-21T05:29:41;19.00;92.30
65034;DHT22;51601;51.356;12.458;2022-08-21T05:33:55;19.10;92.20
65034;DHT22;51601;51.356;12.458;2022-08-21T05:38:11;19.20;92.00
65034;DHT22;51601;51.356;12.458;2022-08-21T05:42:29;19.30;91.80
65034;DHT22;51601;51.356;12.458;2022-08-21T05:46:43;19.40;91.60
65034;DHT22;51601;51.356;12.458;2022-08-21T05:50:57;19.40;91.40
65034;DHT22;51601;51.356;12.458;2022-08-21T05:55:12;19.50;91.60
65034;DHT22;51601;51.356;12.458;2022-08-21T05:59:26;19.60;91.10
65034;DHT22;51601;51.356;12.458;2022-08-21T06:03:42;19.80;90.90
65034;DHT22;51601;51.356;12.458;2022-08-21T06:07:56;20.00;90.70
65034;DHT22;51601;51.356;12.458;2022-08-21T06:12:12;20.20;90.40
65034;DHT22;51601;51.356;12.458;2022-08-21T06:16:26;20.50;90.10
65034;DHT22;51601;51.356;12.458;2022-08-21T06:20:40;20.80;89.80
65034;DHT22;51601;51.356;12.458;2022-08-21T06:24:54;21.20;88.60
65034;DHT22;51601;51.356;12.458;2022-08-21T06:29:12;21.60;87.10
65034;DHT22;51601;51.356;12.458;2022-08-21T06:33:28;22.20;86.30
65034;DHT22;51601;51.356;12.458;2022-08-21T06:37:44;22.90;83.90
65034;DHT22;51601;51.356;12.458;2022-08-21T06:41:58;23.60;80.60
65034;DHT22;51601;51.356;12.458;2022-08-21T06:46:15;24.20;77.50
65034;DHT22;51601;51.356;12.458;2022-08-21T06:50:29;24.50;74.20
65034;DHT22;51601;51.356;12.458;2022-08-21T06:54:43;24.60;71.80
65034;DHT22;51601;51.356;12.458;2022-08-21T06:58:57;24.40;70.60
65034;DHT22;51601;51.356;12.458;2022-08-21T07:03:20;24.10;70.10
65034;DHT22;51601;51.356;12.458;2022-08-21T07:07:34;23.80;70.00
65034;DHT22;51601;51.356;12.458;2022-08-21T07:11:50;23.70;70.20
65034;DHT22;51601;51.356;12.458;2022-08-21T07:16:06;23.70;70.20
65034;DHT22;51601;51.356;12.458;2022-08-21T07:20:21;23.80;70.50
65034;DHT22;51601;51.356;12.458;2022-08-21T07:24:35;24.30;70.10
65034;DHT22;51601;51.356;12.458;2022-08-21T07:28:50;25.10;68.80
65034;DHT22;51601;51.356;12.458;2022-08-21T07:33:03;25.90;66.90
65034;DHT22;51601;51.356;12.458;2022-08-21T07:37:19;26.80;64.50
65034;DHT22;51601;51.356;12.458;2022-08-21T07:41:33;27.10;61.50
65034;DHT22;51601;51.356;12.458;2022-08-21T07:45:48;27.10;60.30
65034;DHT22;51601;51.356;12.458;2022-08-21T07:50:04;26.80;59.80
65034;DHT22;51601;51.356;12.458;2022-08-21T07:54:19;26.40;59.70
65034;DHT22;51601;51.356;12.458;2022-08-21T07:58:45;26.10;60.30
65034;DHT22;51601;51.356;12.458;2022-08-21T08:02:59;25.90;60.70
65034;DHT22;51601;51.356;12.458;2022-08-21T08:07:14;25.80;60.50
65034;DHT22;51601;51.356;12.458;2022-08-21T08:11:30;25.80;60.60
65034;DHT22;51601;51.356;12.458;2022-08-21T08:15:44;25.90;60.50
65034;DHT22;51601;51.356;12.458;2022-08-21T08:19:58;26.20;59.60
65034;DHT22;51601;51.356;12.458;2022-08-21T08:24:13;26.60;58.90
65034;DHT22;51601;51.356;12.458;2022-08-21T08:28:33;26.90;58.00
65034;DHT22;51601;51.356;12.458;2022-08-21T08:32:47;27.30;56.50
65034;DHT22;51601;51.356;12.458;2022-08-21T08:37:02;27.50;56.10
65034;DHT22;51601;51.356;12.458;2022-08-21T08:41:19;27.80;55.40
65034;DHT22;51601;51.356;12.458;2022-08-21T08:45:46;28.10;54.20
65034;DHT22;51601;51.356;12.458;2022-08-21T08:50:05;28.40;53.30
65034;DHT22;51601;51.356;12.458;2022-08-21T08:54:25;29.00;52.90
65034;DHT22;51601;51.356;12.458;2022-08-21T08:58:45;29.80;51.30
65034;DHT22;51601;51.356;12.458;2022-08-21T09:03:02;30.70;49.60
65034;DHT22;51601;51.356;12.458;2022-08-21T09:07:22;31.60;46.60
65034;DHT22;51601;51.356;12.458;2022-08-21T09:11:44;32.30;44.30
65034;DHT22;51601;51.356;12.458;2022-08-21T09:16:05;33.10;42.00
65034;DHT22;51601;51.356;12.458;2022-08-21T09:20:32;33.40;40.20
65034;DHT22;51601;51.356;12.458;2022-08-21T09:24:51;33.40;40.10
65034;DHT22;51601;51.356;12.458;2022-08-21T09:29:08;33.80;38.90
65034;DHT22;51601;51.356;12.458;2022-08-21T09:33:23;34.10;37.40
65034;DHT22;51601;51.356;12.458;2022-08-21T09:37:49;34.20;36.80
65034;DHT22;51601;51.356;12.458;2022-08-21T09:42:05;33.90;36.70
65034;DHT22;51601;51.356;12.458;2022-08-21T09:46:21;33.20;37.30
65034;DHT22;51601;51.356;12.458;2022-08-21T09:50:36;32.70;38.10
65034;DHT22;51601;51.356;12.458;2022-08-21T09:54:54;32.50;37.90
65034;DHT22;51601;51.356;12.458;2022-08-21T09:59:24;32.60;36.80
65034;DHT22;51601;51.356;12.458;2022-08-21T10:03:38;32.30;36.90
65034;DHT22;51601;51.356;12.458;2022-08-21T10:07:52;32.00;36.90
65034;DHT22;51601;51.356;12.458;2022-08-21T10:12:14;32.20;36.70
65034;DHT22;51601;51.356;12.458;2022-08-21T10:16:35;32.30;35.40
65034;DHT22;51601;51.356;12.458;2022-08-21T10:20:54;32.50;35.70
65034;DHT22;51601;51.356;12.458;2022-08-21T10:25:17;33.30;35.10
65034;DHT22;51601;51.356;12.458;2022-08-21T10:29:45;34.20;34.00
65034;DHT22;51601;51.356;12.458;2022-08-21T10:34:13;34.70;33.10
65034;DHT22;51601;51.356;12.458;2022-08-21T10:38:45;34.80;32.70
65034;DHT22;51601;51.356;12.458;2022-08-21T10:43:29;34.70;32.20
65034;DHT22;51601;51.356;12.458;2022-08-21T10:47:50;34.50;32.20
65034;DHT22;51601;51.356;12.458;2022-08-21T10:52:36;34.70;32.70
65034;DHT22;51601;51.356;12.458;2022-08-21T11:02:40;35.30;33.10
65034;DHT22;51601;51.356;12.458;2022-08-21T11:07:02;35.90;31.90
65034;DHT22;51601;51.356;12.458;2022-08-21T11:11:32;37.00;30.30
65034;DHT22;51601;51.356;12.458;2022-08-21T11:15:55;37.80;29.40
65034;DHT22;51601;51.356;12.458;2022-08-21T11:20:13;38.20;28.80
65034;DHT22;51601;51.356;12.458;2022-08-21T11:24:38;38.40;28.30
65034;DHT22;51601;51.356;12.458;2022-08-21T11:29:00;38.50;28.20
65034;DHT22;51601;51.356;12.458;2022-08-21T11:33:29;38.60;28.10
65034;DHT22;51601;51.356;12.458;2022-08-21T11:37:55;38.70;27.60
65034;DHT22;51601;51.356;12.458;2022-08-21T11:46:57;38.70;27.20
65034;DHT22;51601;51.356;12.458;2022-08-21T11:51:16;38.50;27.10
65034;DHT22;51601;51.356;12.458;2022-08-21T11:55:37;38.30;26.70
65034;DHT22;51601;51.356;12.458;2022-08-21T11:59:59;37.90;26.70
65034;DHT22;51601;51.356;12.458;2022-08-21T12:04:27;37.10;27.40
65034;DHT22;51601;51.356;12.458;2022-08-21T12:08:43;36.10;28.20
65034;DHT22;51601;51.356;12.458;2022-08-21T12:13:08;35.00;28.70
65034;DHT22;51601;51.356;12.458;2022-08-21T12:17:35;33.70;29.20
65034;DHT22;51601;51.356;12.458;2022-08-21T12:21:52;32.40;30.20
65034;DHT22;51601;51.356;12.458;2022-08-21T12:26:28;31.40;31.40
65034;DHT22;51601;51.356;12.458;2022-08-21T12:30:44;30.60;32.60
65034;DHT22;51601;51.356;12.458;2022-08-21T12:35:07;29.80;33.60
65034;DHT22;51601;51.356;12.458;2022-08-21T12:39:38;29.30;34.60
65034;DHT22;51601;51.356;12.458;2022-08-21T12:44:00;29.00;35.60
65034;DHT22;51601;51.356;12.458;2022-08-21T12:48:19;28.80;36.30
65034;DHT22;51601;51.356;12.458;2022-08-21T12:52:41;28.60;36.70
65034;DHT22;51601;51.356;12.458;2022-08-21T12:56:59;28.50;37.30
65034;DHT22;51601;51.356;12.458;2022-08-21T13:01:19;28.40;37.50
65034;DHT22;51601;51.356;12.458;2022-08-21T13:05:36;28.40;37.60
65034;DHT22;51601;51.356;12.458;2022-08-21T13:09:54;28.50;37.60
65034;DHT22;51601;51.356;12.458;2022-08-21T13:14:14;28.40;37.00
65034;DHT22;51601;51.356;12.458;2022-08-21T13:18:34;28.20;37.00
65034;DHT22;51601;51.356;12.458;2022-08-21T13:22:48;27.80;37.70
65034;DHT22;51601;51.356;12.458;2022-08-21T13:27:14;27.60;38.20
65034;DHT22;51601;51.356;12.458;2022-08-21T13:31:34;27.40;38.70
65034;DHT22;51601;51.356;12.458;2022-08-21T13:36:07;27.30;39.20
65034;DHT22;51601;51.356;12.458;2022-08-21T13:40:50;27.30;38.90
65034;DHT22;51601;51.356;12.458;2022-08-21T13:45:30;27.10;39.20
65034;DHT22;51601;51.356;12.458;2022-08-21T13:49:46;27.00;39.50
65034;DHT22;51601;51.356;12.458;2022-08-21T13:54:01;26.90;40.00
65034;DHT22;51601;51.356;12.458;2022-08-21T13:58:27;26.90;39.90
65034;DHT22;51601;51.356;12.458;2022-08-21T14:02:46;26.80;39.80
65034;DHT22;51601;51.356;12.458;2022-08-21T14:07:00;26.80;40.10
65034;DHT22;51601;51.356;12.458;2022-08-21T14:11:15;26.70;40.30
65034;DHT22;51601;51.356;12.458;2022-08-21T14:15:33;26.60;40.60
65034;DHT22;51601;51.356;12.458;2022-08-21T14:19:49;26.50;41.10
65034;DHT22;51601;51.356;12.458;2022-08-21T14:24:06;26.50;41.40
65034;DHT22;51601;51.356;12.458;2022-08-21T14:28:24;26.40;41.40
65034;DHT22;51601;51.356;12.458;2022-08-21T14:32:41;26.50;41.50
65034;DHT22;51601;51.356;12.458;2022-08-21T14:37:07;26.70;41.40
65034;DHT22;51601;51.356;12.458;2022-08-21T14:41:23;26.70;41.00
65034;DHT22;51601;51.356;12.458;2022-08-21T14:45:38;26.80;41.00
65034;DHT22;51601;51.356;12.458;2022-08-21T14:49:53;26.80;40.80
65034;DHT22;51601;51.356;12.458;2022-08-21T14:54:08;26.80;41.00
65034;DHT22;51601;51.356;12.458;2022-08-21T14:58:22;26.70;40.70
65034;DHT22;51601;51.356;12.458;2022-08-21T15:02:37;26.60;41.20
65034;DHT22;51601;51.356;12.458;2022-08-21T15:06:50;26.40;40.80
65034;DHT22;51601;51.356;12.458;2022-08-21T15:11:07;26.30;41.10
65034;DHT22;51601;51.356;12.458;2022-08-21T15:15:26;26.20;41.60
65034;DHT22;51601;51.356;12.458;2022-08-21T15:19:41;26.20;42.00
65034;DHT22;51601;51.356;12.458;2022-08-21T15:23:55;26.20;42.20
65034;DHT22;51601;51.356;12.458;2022-08-21T15:28:11;26.10;42.10
65034;DHT22;51601;51.356;12.458;2022-08-21T15:32:26;26.00;42.10
65034;DHT22;51601;51.356;12.458;2022-08-21T15:36:42;26.00;42.20
65034;DHT22;51601;51.356;12.458;2022-08-21T15:40:56;25.90;42.20
65034;DHT22;51601;51.356;12.458;2022-08-21T15:51:00;25.80;42.50
65034;DHT22;51601;51.356;12.458;2022-08-21T15:55:27;25.90;42.50
65034;DHT22;51601;51.356;12.458;2022-08-21T16:00:14;25.80;42.70
65034;DHT22;51601;51.356;12.458;2022-08-21T16:04:42;25.80;43.00
65034;DHT22;51601;51.356;12.458;2022-08-21T16:09:24;25.90;42.80
65034;DHT22;51601;51.356;12.458;2022-08-21T16:13:51;25.80;42.80
65034;DHT22;51601;51.356;12.458;2022-08-21T16:18:31;25.80;42.90
65034;DHT22;51601;51.356;12.458;2022-08-21T16:22:59;25.70;43.00
65034;DHT22;51601;51.356;12.458;2022-08-21T16:27:41;25.70;43.20
65034;DHT22;51601;51.356;12.458;2022-08-21T16:32:04;25.60;43.20
65034;DHT22;51601;51.356;12.458;2022-08-21T16:36:44;25.50;43.40
65034;DHT22;51601;51.356;12.458;2022-08-21T16:41:15;25.50;43.50
65034;DHT22;51601;51.356;12.458;2022-08-21T16:45:58;25.40;43.60
65034;DHT22;51601;51.356;12.458;2022-08-21T16:50:32;25.40;43.60
65034;DHT22;51601;51.356;12.458;2022-08-21T16:55:18;25.40;43.60
65034;DHT22;51601;51.356;12.458;2022-08-21T16:59:41;25.30;43.80
65034;DHT22;51601;51.356;12.458;2022-08-21T17:04:22;25.30;43.90
65034;DHT22;51601;51.356;12.458;2022-08-21T17:08:50;25.20;44.00
65034;DHT22;51601;51.356;12.458;2022-08-21T17:13:33;25.10;44.10
65034;DHT22;51601;51.356;12.458;2022-08-21T17:18:00;25.00;44.30
65034;DHT22;51601;51.356;12.458;2022-08-21T17:22:36;24.90;44.40
65034;DHT22;51601;51.356;12.458;2022-08-21T17:27:04;24.80;44.60
65034;DHT22;51601;51.356;12.458;2022-08-21T17:31:50;24.70;44.80
65034;DHT22;51601;51.356;12.458;2022-08-21T17:36:19;24.60;45.10
65034;DHT22;51601;51.356;12.458;2022-08-21T17:41:01;24.60;45.30
65034;DHT22;51601;51.356;12.458;2022-08-21T17:45:28;24.60;45.40
65034;DHT22;51601;51.356;12.458;2022-08-21T17:50:11;24.40;45.40
65034;DHT22;51601;51.356;12.458;2022-08-21T17:54:51;24.30;45.80
65034;DHT22;51601;51.356;12.458;2022-08-21T17:59:23;24.10;46.20
65034;DHT22;51601;51.356;12.458;2022-08-21T18:04:03;23.90;46.60
65034;DHT22;51601;51.356;12.458;2022-08-21T18:08:31;23.70;47.30
65034;DHT22;51601;51.356;12.458;2022-08-21T18:13:08;23.50;47.60
65034;DHT22;51601;51.356;12.458;2022-08-21T18:17:39;23.30;48.30
65034;DHT22;51601;51.356;12.458;2022-08-21T18:22:19;23.10;48.80
65034;DHT22;51601;51.356;12.458;2022-08-21T18:26:46;22.90;50.10
65034;DHT22;51601;51.356;12.458;2022-08-21T18:31:28;22.80;50.50
65034;DHT22;51601;51.356;12.458;2022-08-21T18:35:50;22.60;51.20
65034;DHT22;51601;51.356;12.458;2022-08-21T18:40:32;22.50;51.70
65034;DHT22;51601;51.356;12.458;2022-08-21T18:45:01;22.30;52.70
65034;DHT22;51601;51.356;12.458;2022-08-21T18:49:42;22.20;53.60
65034;DHT22;51601;51.356;12.458;2022-08-21T18:54:10;22.10;54.10
65034;DHT22;51601;51.356;12.458;2022-08-21T18:58:44;22.00;54.40
65034;DHT22;51601;51.356;12.458;2022-08-21T19:03:12;21.90;54.90
65034;DHT22;51601;51.356;12.458;2022-08-21T19:07:53;21.80;55.20
65034;DHT22;51601;51.356;12.458;2022-08-21T19:12:23;21.70;55.50
65034;DHT22;51601;51.356;12.458;2022-08-21T19:17:04;21.70;55.50
65034;DHT22;51601;51.356;12.458;2022-08-21T19:21:25;21.60;55.80
65034;DHT22;51601;51.356;12.458;2022-08-21T19:26:06;21.50;56.10
65034;DHT22;51601;51.356;12.458;2022-08-21T19:30:36;21.40;56.70
65034;DHT22;51601;51.356;12.458;2022-08-21T19:35:16;21.30;57.90
65034;DHT22;51601;51.356;12.458;2022-08-21T19:39:44;21.20;57.30
65034;DHT22;51601;51.356;12.458;2022-08-21T19:44:27;21.10;57.80
65034;DHT22;51601;51.356;12.458;2022-08-21T19:48:51;21.00;57.70
65034;DHT22;51601;51.356;12.458;2022-08-21T19:53:31;20.90;57.80
65034;DHT22;51601;51.356;12.458;2022-08-21T19:58:00;20.90;58.10
65034;DHT22;51601;51.356;12.458;2022-08-21T20:02:46;20.70;58.50
65034;DHT22;51601;51.356;12.458;2022-08-21T20:07:15;20.60;59.10
65034;DHT22;51601;51.356;12.458;2022-08-21T20:11:57;20.60;59.20
65034;DHT22;51601;51.356;12.458;2022-08-21T20:16:28;20.40;59.50
65034;DHT22;51601;51.356;12.458;2022-08-21T20:21:06;20.30;60.40
65034;DHT22;51601;51.356;12.458;2022-08-21T20:25:36;20.20;60.70
65034;DHT22;51601;51.356;12.458;2022-08-21T20:30:17;20.00;60.70
65034;DHT22;51601;51.356;12.458;2022-08-21T20:34:44;20.00;61.90
65034;DHT22;51601;51.356;12.458;2022-08-21T20:39:24;19.90;61.40
65034;DHT22;51601;51.356;12.458;2022-08-21T20:43:54;19.80;62.00
65034;DHT22;51601;51.356;12.458;2022-08-21T20:48:31;19.80;62.20
65034;DHT22;51601;51.356;12.458;2022-08-21T20:53:16;19.80;62.50
65034;DHT22;51601;51.356;12.458;2022-08-21T20:58:12;19.70;62.70
65034;DHT22;51601;51.356;12.458;2022-08-21T21:02:52;19.60;62.80
65034;DHT22;51601;51.356;12.458;2022-08-21T21:07:48;19.50;62.90
65034;DHT22;51601;51.356;12.458;2022-08-21T21:12:24;19.40;63.40
65034;DHT22;51601;51.356;12.458;2022-08-21T21:17:12;19.40;63.60
65034;DHT22;51601;51.356;12.458;2022-08-21T21:21:50;19.40;63.90
65034;DHT22;51601;51.356;12.458;2022-08-21T21:26:38;19.40;64.20
65034;DHT22;51601;51.356;12.458;2022-08-21T21:31:07;19.30;64.60
65034;DHT22;51601;51.356;12.458;2022-08-21T21:35:50;19.30;65.10
65034;DHT22;51601;51.356;12.458;2022-08-21T21:40:36;19.30;65.20
65034;DHT22;51601;51.356;12.458;2022-08-21T21:45:24;19.20;65.20
65034;DHT22;51601;51.356;12.458;2022-08-21T21:50:03;19.20;65.30
65034;DHT22;51601;51.356;12.458;2022-08-21T21:54:58;19.10;65.50
65034;DHT22;51601;51.356;12.458;2022-08-21T21:59:40;19.10;65.70
65034;DHT22;51601;51.356;12.458;2022-08-21T22:04:36;19.00;66.50
65034;DHT22;51601;51.356;12.458;2022-08-21T22:09:39;18.90;66.10
65034;DHT22;51601;51.356;12.458;2022-08-21T22:14:28;18.80;66.30
65034;DHT22;51601;51.356;12.458;2022-08-21T22:18:55;18.70;66.80
65034;DHT22;51601;51.356;12.458;2022-08-21T22:23:42;18.60;67.00
65034;DHT22;51601;51.356;12.458;2022-08-21T22:28:25;18.50;67.30
65034;DHT22;51601;51.356;12.458;2022-08-21T22:33:09;18.40;67.70
65034;DHT22;51601;51.356;12.458;2022-08-21T22:37:42;18.30;68.20
65034;DHT22;51601;51.356;12.458;2022-08-21T22:42:24;18.30;68.80
65034;DHT22;51601;51.356;12.458;2022-08-21T22:46:53;18.30;68.90
65034;DHT22;51601;51.356;12.458;2022-08-21T22:51:39;18.20;69.00
65034;DHT22;51601;51.356;12.458;2022-08-21T22:56:26;18.20;69.10
65034;DHT22;51601;51.356;12.458;2022-08-21T23:01:04;18.20;69.60
65034;DHT22;51601;51.356;12.458;2022-08-21T23:05:34;18.10;70.00
65034;DHT22;51601;51.356;12.458;2022-08-21T23:10:23;18.10;70.40
65034;DHT22;51601;51.356;12.458;2022-08-21T23:14:52;18.00;71.00
65034;DHT22;51601;51.356;12.458;2022-08-21T23:19:47;17.90;71.20
65034;DHT22;51601;51.356;12.458;2022-08-21T23:29:33;17.80;72.00
65034;DHT22;51601;51.356;12.458;2022-08-21T23:34:19;17.60;72.50
65034;DHT22;51601;51.356;12.458;2022-08-21T23:39:13;17.60;72.90
65034;DHT22;51601;51.356;12.458;2022-08-21T23:43:58;17.50;73.30
65034;DHT22;51601;51.356;12.458;2022-08-21T23:48:46;17.50;73.40
65034;DHT22;51601;51.356;12.458;2022-08-21T23:53:32;17.40;73.70
65034;DHT22;51601;51.356;12.458;2022-08-21T23:58:26;17.30;74.00
